USTR 230600Z 31002G07MPS CAVOK 09/M11 Q1019 R30/090065 R21/090065 NOSIG
QNH:(hPa/inHg/mmHg)1019 / 30.09 / 764
QFE:(hPa/inHg/mmHg)1005 / 29.68 / 754
Temperature9
Dew Point-11
Visibility> 10000
WeatherCAVOK
Cloud Cover
Transition Altitude3000 ft.
Transition LevelFL40
SQUAWK